Time;durP1;ratioP1;P1;durP2;ratioP2;P2;SDS_P1;SDS_P2;PMS_P1;PMS_P2;Temp;Humidity;BMP_temperature;BMP_pressure;BME280_temperature;BME280_humidity;BME280_pressure;Samples;Min_cycle;Max_cycle;Signal;HPM_P1;HPM_P2
2023/12/22 00:01:41;;;;;;;22.37;4.67;;;;;;;4.03;92.97;98522.44;5035746;28;20207;-73
2023/12/22 00:04:09;;;;;;;17.27;4.77;;;;;;;4.03;92.41;98525.91;5035656;28;20217;-73
2023/12/22 00:06:38;;;;;;;19.03;4.50;;;;;;;4.01;92.48;98521.75;5035381;28;20207;-75
2023/12/22 00:09:08;;;;;;;23.43;4.40;;;;;;;4.02;92.60;98529.53;5035469;28;20235;-74
2023/12/22 00:11:36;;;;;;;15.30;4.80;;;;;;;4.02;92.95;98524.25;5035585;28;20237;-74
2023/12/22 00:14:05;;;;;;;22.30;4.87;;;;;;;4.01;92.38;98532.34;5035485;28;20206;-74
2023/12/22 00:16:33;;;;;;;18.27;4.30;;;;;;;3.98;92.50;98538.00;5035506;28;20211;-74
2023/12/22 00:19:02;;;;;;;20.97;4.10;;;;;;;3.99;92.67;98529.06;5035034;28;20640;-73
2023/12/22 00:21:31;;;;;;;21.97;4.03;;;;;;;3.98;92.08;98548.56;5035352;28;20207;-74
2023/12/22 00:24:00;;;;;;;21.37;4.07;;;;;;;4.00;92.45;98536.84;5035324;28;20261;-74
2023/12/22 00:26:30;;;;;;;19.83;4.17;;;;;;;3.98;92.78;98541.47;5035266;28;20238;-74
2023/12/22 00:28:58;;;;;;;24.53;5.50;;;;;;;3.98;90.94;98540.63;5035093;28;20256;-73
2023/12/22 00:31:26;;;;;;;22.17;4.27;;;;;;;3.97;91.87;98531.06;5034852;28;20217;-75
2023/12/22 00:33:55;;;;;;;20.80;4.17;;;;;;;3.95;92.05;98528.56;5035154;28;20207;-75
2023/12/22 00:36:24;;;;;;;18.23;4.30;;;;;;;3.99;91.68;98534.34;5034809;28;20695;-75
2023/12/22 00:38:53;;;;;;;21.80;4.10;;;;;;;3.99;91.20;98537.84;5033863;28;20230;-73
2023/12/22 00:41:21;;;;;;;16.50;3.97;;;;;;;3.98;90.54;98538.81;5035005;28;20211;-73
2023/12/22 00:43:51;;;;;;;19.93;3.50;;;;;;;4.01;90.24;98537.63;5034661;28;20753;-73
2023/12/22 00:46:20;;;;;;;22.90;4.07;;;;;;;4.01;90.92;98543.75;5034896;28;20207;-73
2023/12/22 00:48:48;;;;;;;17.70;4.03;;;;;;;4.01;90.41;98537.63;5034556;28;20635;-74
2023/12/22 00:51:17;;;;;;;17.97;3.97;;;;;;;4.01;90.20;98543.75;5034315;28;20227;-75
2023/12/22 00:53:45;;;;;;;14.87;3.70;;;;;;;4.00;90.67;98525.44;5034812;28;20294;-75
2023/12/22 00:56:14;;;;;;;22.77;4.63;;;;;;;4.00;89.90;98546.59;5034765;28;20233;-74
2023/12/22 00:58:42;;;;;;;18.77;3.80;;;;;;;4.00;89.25;98546.59;5034601;28;20231;-73
2023/12/22 01:01:18;;;;;;;18.87;4.07;;;;;;;3.95;90.38;98562.16;5034734;28;20194;-73
2023/12/22 01:03:47;;;;;;;22.37;4.57;;;;;;;3.99;90.64;98566.97;5034591;28;20206;-73
2023/12/22 01:06:15;;;;;;;18.60;4.47;;;;;;;3.99;90.33;98563.47;5034548;28;20241;-74
2023/12/22 01:08:44;;;;;;;21.53;5.17;;;;;;;3.98;91.05;98569.75;5034146;28;20708;-74
2023/12/22 01:11:12;;;;;;;21.23;4.63;;;;;;;3.98;91.44;98565.28;5034328;28;20321;-74
2023/12/22 01:13:41;;;;;;;20.73;5.00;;;;;;;4.02;91.68;98566.59;5034374;28;20294;-73
2023/12/22 01:16:09;;;;;;;20.27;4.07;;;;;;;3.98;92.77;98561.81;5034333;28;20257;-73
2023/12/22 01:18:42;;;;;;;15.40;3.97;;;;;;;3.95;93.34;98564.81;5034415;28;20231;-73
2023/12/22 01:21:11;;;;;;;21.57;4.63;;;;;;;3.93;94.14;98578.22;5033996;28;20184;-73
2023/12/22 01:23:39;;;;;;;20.40;4.07;;;;;;;3.90;94.28;98586.53;5033921;28;20669;-73
2023/12/22 01:26:08;;;;;;;23.20;4.47;;;;;;;3.89;93.68;98587.50;5034199;28;20238;-74
2023/12/22 01:28:37;;;;;;;18.17;4.13;;;;;;;3.90;93.71;98605.06;5033758;28;20317;-75
2023/12/22 01:31:05;;;;;;;17.27;4.00;;;;;;;3.88;93.95;98603.53;5034012;28;20280;-73
2023/12/22 01:33:34;;;;;;;15.63;3.97;;;;;;;3.90;94.04;98617.47;5034031;28;20213;-73
2023/12/22 01:36:04;;;;;;;19.10;3.50;;;;;;;3.89;94.05;98597.25;5033657;28;20241;-73
2023/12/22 01:38:33;;;;;;;19.53;4.30;;;;;;;3.91;94.29;98587.31;5034035;28;20265;-73
2023/12/22 01:41:02;;;;;;;15.50;3.87;;;;;;;3.86;94.71;98598.44;5033621;28;20246;-73
2023/12/22 01:43:31;;;;;;;17.20;4.33;;;;;;;3.82;95.36;98596.28;5033921;28;20210;-74
2023/12/22 01:46:02;;;;;;;21.20;3.77;;;;;;;3.79;95.87;98596.63;5033833;28;20253;-73
2023/12/22 01:48:32;;;;;;;14.87;3.13;;;;;;;3.82;95.23;98610.34;5033723;28;20226;-75
2023/12/22 01:51:04;;;;;;;11.67;2.83;;;;;;;3.76;96.08;98605.75;5033375;28;20227;-74
2023/12/22 01:53:34;;;;;;;11.80;3.67;;;;;;;3.71;97.17;98609.88;5033761;28;20195;-74
2023/12/22 01:56:07;;;;;;;8.63;2.97;;;;;;;3.69;97.14;98596.00;5033692;28;20199;-74
2023/12/22 01:58:38;;;;;;;17.13;3.67;;;;;;;3.59;98.68;98606.78;5033284;28;20724;-73
2023/12/22 02:01:07;;;;;;;18.00;3.87;;;;;;;3.63;99.09;98607.25;5033402;28;20637;-73
2023/12/22 02:03:36;;;;;;;20.30;4.33;;;;;;;3.58;98.96;98603.28;5033564;28;20207;-73
2023/12/22 02:06:07;;;;;;;14.97;3.23;;;;;;;3.56;99.85;98599.97;5033290;28;20747;-73
2023/12/22 02:08:35;;;;;;;14.17;3.33;;;;;;;3.58;99.52;98613.88;5033518;28;20226;-73
2023/12/22 02:11:04;;;;;;;12.67;3.37;;;;;;;3.61;99.99;98609.22;5033421;28;20324;-73
2023/12/22 02:13:33;;;;;;;13.17;2.97;;;;;;;3.59;100.00;98625.28;5033211;28;20249;-73
2023/12/22 02:16:12;;;;;;;11.47;3.10;;;;;;;3.62;100.00;98606.44;5033475;28;20280;-73
2023/12/22 02:18:44;;;;;;;14.67;2.93;;;;;;;3.57;100.00;98601.63;5033384;28;20226;-75
2023/12/22 02:21:14;;;;;;;17.03;3.47;;;;;;;3.51;100.00;98602.31;5033417;28;20186;-73
2023/12/22 02:23:44;;;;;;;13.40;3.50;;;;;;;3.52;100.00;98601.31;5033362;28;20230;-74
2023/12/22 02:26:21;;;;;;;13.17;3.90;;;;;;;3.50;100.00;98603.28;5033334;28;20210;-75
2023/12/22 02:28:51;;;;;;;16.93;4.10;;;;;;;3.50;100.00;98603.28;5033323;28;20230;-73
2023/12/22 02:31:28;;;;;;;21.57;4.50;;;;;;;3.45;100.00;98600.34;5032932;28;20280;-73
2023/12/22 02:33:59;;;;;;;21.23;4.97;;;;;;;3.49;100.00;98606.94;5033355;28;20193;-73
2023/12/22 02:36:30;;;;;;;22.97;4.50;;;;;;;3.52;100.00;98627.78;5033319;28;20191;-73
2023/12/22 02:39:02;;;;;;;17.90;3.80;;;;;;;3.55;100.00;98595.69;5033279;28;20281;-73
2023/12/22 02:41:31;;;;;;;12.33;3.00;;;;;;;3.55;99.58;98590.41;5033286;28;20266;-73
2023/12/22 02:44:01;;;;;;;17.63;3.83;;;;;;;3.55;99.13;98595.69;5033217;28;20206;-75
2023/12/22 02:46:29;;;;;;;12.30;2.87;;;;;;;3.55;98.95;98601.00;5032895;28;20623;-73
2023/12/22 02:48:58;;;;;;;9.23;2.43;;;;;;;3.53;97.69;98599.47;5033009;28;20227;-73
2023/12/22 02:51:27;;;;;;;15.20;3.30;;;;;;;3.50;97.68;98598.00;5033178;28;20207;-73
2023/12/22 02:53:55;;;;;;;10.17;2.60;;;;;;;3.51;97.44;98626.13;5033160;28;20373;-74
2023/12/22 02:56:25;;;;;;;10.53;2.37;;;;;;;3.52;97.64;98638.38;5032777;28;20691;-73
2023/12/22 02:58:53;;;;;;;11.17;2.13;;;;;;;3.46;98.65;98662.81;5032694;28;20704;-73
2023/12/22 03:01:22;;;;;;;7.50;2.13;;;;;;;3.37;100.00;98661.19;5035020;28;20233;-73
2023/12/22 03:03:50;;;;;;;10.07;3.37;;;;;;;3.22;100.00;98628.44;5036845;28;20256;-73
2023/12/22 03:06:19;;;;;;;14.83;4.47;;;;;;;3.15;100.00;98608.94;5036793;28;20239;-73
2023/12/22 03:08:48;;;;;;;10.10;2.93;;;;;;;3.16;100.00;98615.88;5036400;28;20607;-73
2023/12/22 03:11:16;;;;;;;10.57;3.33;;;;;;;3.12;100.00;98609.25;5036625;28;20396;-73
2023/12/22 03:13:46;;;;;;;11.80;3.13;;;;;;;3.17;100.00;98606.97;5036610;28;20211;-73
2023/12/22 03:16:14;;;;;;;13.57;3.00;;;;;;;3.16;100.00;98605.31;5036603;28;20217;-73
2023/12/22 03:18:44;;;;;;;14.23;2.67;;;;;;;3.14;100.00;98607.28;5036200;28;20231;-73
2023/12/22 03:21:19;;;;;;;11.07;3.13;;;;;;;3.14;100.00;98606.47;5036515;28;20210;-73
2023/12/22 03:23:47;;;;;;;11.77;3.13;;;;;;;3.10;100.00;98616.53;5036205;28;20237;-73
2023/12/22 03:26:15;;;;;;;10.23;2.73;;;;;;;3.16;100.00;98630.91;5036420;28;20203;-73
2023/12/22 03:28:45;;;;;;;11.17;2.63;;;;;;;3.16;100.00;98613.22;5036301;28;20287;-73
2023/12/22 03:31:14;;;;;;;11.63;2.70;;;;;;;3.21;100.00;98603.00;5035865;28;20623;-73
2023/12/22 03:33:42;;;;;;;11.73;2.70;;;;;;;3.17;100.00;98611.41;5036288;28;20218;-73
2023/12/22 03:36:11;;;;;;;13.23;2.53;;;;;;;3.19;100.00;98601.50;5036263;28;20207;-73
2023/12/22 03:38:39;;;;;;;8.87;2.23;;;;;;;3.17;100.00;98617.53;5036124;28;20318;-73
2023/12/22 03:41:08;;;;;;;9.90;2.27;;;;;;;3.14;100.00;98607.28;5036123;28;20198;-73
2023/12/22 03:43:36;;;;;;;13.90;3.17;;;;;;;3.06;100.00;98615.22;5036103;28;20207;-73
2023/12/22 03:46:06;;;;;;;13.50;2.63;;;;;;;3.03;100.00;98611.09;5036032;28;20214;-73
2023/12/22 03:48:35;;;;;;;13.90;2.67;;;;;;;2.99;100.00;98603.66;5035895;28;20313;-73
2023/12/22 03:51:03;;;;;;;10.73;3.00;;;;;;;3.03;100.00;98599.69;5035542;28;20260;-73
2023/12/22 03:53:32;;;;;;;16.83;3.53;;;;;;;3.07;100.00;98590.44;5035983;28;20297;-73
2023/12/22 03:56:01;;;;;;;16.47;3.50;;;;;;;3.10;100.00;98599.84;5035897;28;20640;-73
2023/12/22 03:58:30;;;;;;;12.07;4.00;;;;;;;3.12;100.00;98605.81;5035440;28;20651;-74
2023/12/22 04:00:58;;;;;;;14.23;3.53;;;;;;;3.13;100.00;98616.22;5035791;28;20234;-74
2023/12/22 04:03:28;;;;;;;16.53;3.77;;;;;;;3.15;100.00;98601.00;5035770;28;20211;-74
2023/12/22 04:05:57;;;;;;;15.90;3.67;;;;;;;3.15;100.00;98598.34;5035705;28;20294;-75
2023/12/22 04:08:25;;;;;;;20.70;4.27;;;;;;;3.13;100.00;98587.13;5035245;28;20273;-74
2023/12/22 04:10:54;;;;;;;19.83;3.80;;;;;;;3.15;100.00;98574.56;5035520;28;20217;-74
2023/12/22 04:13:22;;;;;;;22.27;3.63;;;;;;;3.15;100.00;98589.63;5034350;28;20230;-74
2023/12/22 04:15:51;;;;;;;19.43;4.50;;;;;;;3.16;100.00;98586.78;5035237;28;20572;-74
2023/12/22 04:18:20;;;;;;;18.80;3.50;;;;;;;3.18;100.00;98584.81;5035095;28;20779;-73
2023/12/22 04:20:53;;;;;;;16.07;3.93;;;;;;;3.17;100.00;98574.41;5035415;28;20218;-74
2023/12/22 04:23:22;;;;;;;15.97;2.67;;;;;;;3.14;99.67;98586.16;5035034;28;20637;-74
2023/12/22 04:25:51;;;;;;;13.37;3.17;;;;;;;3.16;99.71;98578.84;5035335;28;20210;-73
2023/12/22 04:28:19;;;;;;;14.40;3.13;;;;;;;3.15;99.88;98579.84;5035227;28;20231;-73
2023/12/22 04:30:48;;;;;;;17.10;3.30;;;;;;;3.14;100.00;98583.50;5034964;28;20681;-73
2023/12/22 04:33:16;;;;;;;18.93;3.40;;;;;;;3.13;100.00;98583.66;5035114;28;20226;-74
2023/12/22 04:35:45;;;;;;;10.43;3.30;;;;;;;3.11;100.00;98591.78;5035119;28;20213;-74
2023/12/22 04:38:15;;;;;;;14.20;3.33;;;;;;;3.10;100.00;98616.53;5035088;28;20223;-74
2023/12/22 04:40:43;;;;;;;14.13;3.53;;;;;;;3.12;100.00;98629.59;5035048;28;20207;-74
2023/12/22 04:43:12;;;;;;;12.63;3.00;;;;;;;3.12;100.00;98621.69;5035012;28;20234;-74
2023/12/22 04:45:41;;;;;;;20.80;4.47;;;;;;;3.12;100.00;98619.03;5035508;28;20206;-74
2023/12/22 04:48:09;;;;;;;14.57;3.30;;;;;;;2.99;100.00;98625.63;5034862;28;20318;-73
2023/12/22 04:50:38;;;;;;;18.43;3.40;;;;;;;2.99;100.00;98615.03;5034565;28;20268;-73
2023/12/22 04:53:07;;;;;;;13.90;3.87;;;;;;;2.98;100.00;98601.97;5034406;28;20724;-73
2023/12/22 04:55:37;;;;;;;12.43;2.93;;;;;;;2.97;100.00;98616.22;5034431;28;20738;-75
2023/12/22 04:58:06;;;;;;;17.27;4.03;;;;;;;2.96;100.00;98615.38;5034661;28;20317;-73
2023/12/22 05:00:34;;;;;;;11.20;3.10;;;;;;;3.01;100.00;98614.91;5034362;28;20221;-73
2023/12/22 05:03:03;;;;;;;9.17;2.50;;;;;;;3.02;100.00;98640.31;5034669;28;20214;-73
2023/12/22 05:05:32;;;;;;;15.30;3.73;;;;;;;2.97;100.00;98617.03;5034574;28;20207;-74
2023/12/22 05:08:00;;;;;;;10.33;2.70;;;;;;;2.96;100.00;98607.44;5034460;28;20222;-73
2023/12/22 05:10:29;;;;;;;12.73;2.83;;;;;;;2.92;100.00;98608.75;5034516;28;20230;-73
2023/12/22 05:12:59;;;;;;;13.37;2.67;;;;;;;2.94;100.00;98598.03;5034027;28;20273;-75
2023/12/22 05:15:28;;;;;;;12.47;3.33;;;;;;;2.96;100.00;98582.81;5034376;28;20202;-75
2023/12/22 05:17:56;;;;;;;12.23;3.37;;;;;;;2.86;100.00;98576.88;5033974;28;20720;-73
2023/12/22 05:20:25;;;;;;;10.73;3.27;;;;;;;2.84;100.00;98579.66;5034261;28;20224;-73
2023/12/22 05:22:53;;;;;;;14.67;3.57;;;;;;;2.81;100.00;98587.13;5034167;28;20206;-75
2023/12/22 05:25:22;;;;;;;11.93;3.20;;;;;;;2.81;100.00;98590.56;5034039;28;20233;-75
2023/12/22 05:27:51;;;;;;;20.77;3.43;;;;;;;2.81;100.00;98595.06;5033770;28;20736;-73
2023/12/22 05:30:21;;;;;;;12.50;3.63;;;;;;;2.82;100.00;98605.44;5033836;28;20718;-73
2023/12/22 05:32:50;;;;;;;19.57;3.13;;;;;;;2.84;100.00;98607.94;5034008;28;20232;-73
2023/12/22 05:35:19;;;;;;;12.73;3.00;;;;;;;2.87;100.00;98604.97;5034023;28;20257;-73
2023/12/22 05:37:47;;;;;;;18.17;3.17;;;;;;;2.93;100.00;98605.13;5033643;28;20735;-74
2023/12/22 05:40:17;;;;;;;16.30;3.33;;;;;;;2.97;100.00;98632.06;5033962;28;20206;-74
2023/12/22 05:42:45;;;;;;;19.03;3.47;;;;;;;3.06;100.00;98628.44;5033904;28;20207;-74
2023/12/22 05:45:16;;;;;;;18.03;3.80;;;;;;;3.13;100.00;98634.72;5034062;28;20212;-74
2023/12/22 05:47:46;;;;;;;13.03;3.10;;;;;;;3.13;100.00;98621.50;5033508;28;20724;-74
2023/12/22 05:50:16;;;;;;;18.40;4.30;;;;;;;3.15;100.00;98608.13;5033546;28;20210;-74
2023/12/22 05:52:45;;;;;;;21.80;3.90;;;;;;;3.16;100.00;98618.53;5033356;28;20577;-74
2023/12/22 05:55:14;;;;;;;21.63;3.60;;;;;;;3.18;100.00;98624.50;5033734;28;20211;-74
2023/12/22 05:57:42;;;;;;;16.90;3.33;;;;;;;3.14;100.00;98638.19;5033633;28;20319;-74
2023/12/22 06:00:12;;;;;;;16.97;3.87;;;;;;;3.12;100.00;98630.41;5033635;28;20213;-74
2023/12/22 06:02:40;;;;;;;16.93;3.37;;;;;;;3.12;100.00;98624.31;5033630;28;20246;-75
2023/12/22 06:05:10;;;;;;;17.70;3.73;;;;;;;3.14;100.00;98633.72;5033281;28;20264;-74
2023/12/22 06:07:39;;;;;;;16.03;3.80;;;;;;;3.15;100.00;98645.94;5033168;28;20276;-74
2023/12/22 06:10:09;;;;;;;16.17;3.73;;;;;;;3.16;100.00;98642.31;5033542;28;20214;-74
2023/12/22 06:12:38;;;;;;;16.87;3.40;;;;;;;3.21;100.00;98649.75;5033390;28;20326;-75
2023/12/22 06:15:07;;;;;;;13.27;3.33;;;;;;;3.22;100.00;98644.28;5033485;28;20234;-74
2023/12/22 06:17:36;;;;;;;12.90;3.37;;;;;;;3.25;100.00;98659.84;5033411;28;20427;-74
2023/12/22 06:20:05;;;;;;;17.93;3.63;;;;;;;3.26;100.00;98656.19;5032985;28;20572;-74
2023/12/22 06:22:35;;;;;;;15.23;3.33;;;;;;;3.31;100.00;98669.78;5033402;28;20208;-74
2023/12/22 06:25:07;;;;;;;17.47;3.90;;;;;;;3.29;100.00;98694.75;5033426;28;20236;-74
2023/12/22 06:27:36;;;;;;;15.33;3.10;;;;;;;3.23;100.00;98709.41;5033088;28;20781;-74
2023/12/22 06:30:07;;;;;;;10.40;2.47;;;;;;;3.22;100.00;98699.81;5033381;28;20211;-74
2023/12/22 06:32:39;;;;;;;11.37;2.77;;;;;;;3.17;100.00;98711.88;5033317;28;20269;-74
2023/12/22 06:35:10;;;;;;;11.60;2.63;;;;;;;3.12;100.00;98699.16;5033360;28;20559;-74
2023/12/22 06:37:45;;;;;;;11.80;2.53;;;;;;;3.09;100.00;98702.13;5037027;28;20313;-74
2023/12/22 06:40:14;;;;;;;8.70;2.27;;;;;;;3.04;100.00;98707.91;5037299;28;20207;-74
2023/12/22 06:42:43;;;;;;;5.20;1.90;;;;;;;2.99;100.00;98710.22;5037260;28;20203;-74
2023/12/22 06:45:12;;;;;;;7.20;2.30;;;;;;;2.98;100.00;98700.59;5037415;28;20203;-75
2023/12/22 06:47:40;;;;;;;8.47;1.83;;;;;;;2.98;99.24;98713.00;5037124;28;20229;-74
2023/12/22 06:50:09;;;;;;;7.03;1.80;;;;;;;2.97;98.53;98698.16;5036863;28;20219;-74
2023/12/22 06:52:38;;;;;;;8.57;2.23;;;;;;;3.02;98.14;98724.91;5037008;28;20265;-74
2023/12/22 06:55:09;;;;;;;8.13;2.00;;;;;;;2.99;97.41;98733.16;5037039;28;20218;-75
2023/12/22 06:57:38;;;;;;;3.30;1.63;;;;;;;3.00;96.05;98716.31;5036980;28;20231;-74
2023/12/22 07:00:10;;;;;;;8.03;1.70;;;;;;;3.02;96.13;98719.63;5037081;28;20206;-75
2023/12/22 07:02:38;;;;;;;7.73;1.93;;;;;;;3.06;96.05;98742.09;5036560;28;20651;-74
2023/12/22 07:05:36;;;;;;;9.10;1.90;;;;;;;3.08;95.54;98729.56;5036819;28;20305;-74
2023/12/22 07:08:06;;;;;;;9.20;2.17;;;;;;;3.14;94.95;98743.94;5037144;28;20280;-74
2023/12/22 07:10:37;;;;;;;10.43;2.67;;;;;;;3.15;95.89;98772.84;5036754;28;20209;-74
2023/12/22 07:13:06;;;;;;;12.00;2.17;;;;;;;3.17;95.25;98775.34;5036633;28;20258;-74
2023/12/22 07:15:35;;;;;;;9.90;2.57;;;;;;;3.18;95.64;98769.91;5036346;28;20677;-74
2023/12/22 07:18:04;;;;;;;6.63;2.07;;;;;;;3.12;97.97;98772.38;5036252;28;20774;-74
2023/12/22 07:20:33;;;;;;;9.63;2.37;;;;;;;3.05;99.95;98777.44;5036263;28;20739;-74
2023/12/22 07:23:01;;;;;;;6.47;2.27;;;;;;;2.99;100.00;98807.19;5036478;28;20207;-74
2023/12/22 07:25:30;;;;;;;10.70;2.50;;;;;;;2.88;100.00;98786.31;5036407;28;20206;-74
2023/12/22 07:28:00;;;;;;;6.93;2.57;;;;;;;2.69;100.00;98786.56;5036249;28;20226;-74
2023/12/22 07:30:30;;;;;;;7.93;2.10;;;;;;;2.64;100.00;98810.00;5036387;28;20242;-74
2023/12/22 07:32:58;;;;;;;4.67;1.67;;;;;;;2.65;100.00;98809.00;5036289;28;20242;-74
2023/12/22 07:35:27;;;;;;;6.47;1.60;;;;;;;2.61;100.00;98818.22;5036330;28;20222;-73
2023/12/22 07:37:55;;;;;;;4.83;1.37;;;;;;;2.60;100.00;98819.22;5036222;28;20231;-74
2023/12/22 07:40:25;;;;;;;5.83;1.50;;;;;;;2.59;100.00;98836.03;5036212;28;20206;-74
2023/12/22 07:42:54;;;;;;;4.17;1.63;;;;;;;2.59;100.00;98833.41;5035871;28;20301;-74
2023/12/22 07:45:24;;;;;;;6.77;1.80;;;;;;;2.58;100.00;98822.00;5036132;28;20234;-74
2023/12/22 07:47:52;;;;;;;6.57;2.10;;;;;;;2.59;100.00;98839.53;5035461;28;20310;-74
2023/12/22 07:50:21;;;;;;;5.17;1.93;;;;;;;2.48;100.00;98837.97;5035726;28;20265;-74
2023/12/22 07:52:50;;;;;;;10.00;2.33;;;;;;;2.39;100.00;98822.22;5035913;28;20213;-74
2023/12/22 07:55:19;;;;;;;8.00;1.83;;;;;;;2.20;100.00;98828.53;5035927;28;20234;-74
2023/12/22 07:57:48;;;;;;;7.13;2.20;;;;;;;2.24;100.00;98856.28;5035786;28;20273;-74
2023/12/22 08:00:17;;;;;;;9.10;2.33;;;;;;;2.12;100.00;98820.56;5035854;28;20217;-74
2023/12/22 08:02:47;;;;;;;7.47;1.90;;;;;;;2.16;100.00;98853.56;5035775;28;20238;-75
2023/12/22 08:05:16;;;;;;;6.83;2.10;;;;;;;2.22;100.00;98858.25;5035745;28;20202;-75
2023/12/22 08:07:44;;;;;;;7.23;2.23;;;;;;;2.14;100.00;98868.75;5035646;28;20261;-74
2023/12/22 08:10:13;;;;;;;10.60;2.77;;;;;;;2.11;100.00;98855.84;5035645;28;20215;-74
2023/12/22 08:12:42;;;;;;;9.27;2.17;;;;;;;2.21;100.00;98845.19;5035320;28;20210;-74
2023/12/22 08:15:12;;;;;;;12.33;2.83;;;;;;;2.29;100.00;98837.34;5035465;28;20254;-74
2023/12/22 08:17:54;;;;;;;8.00;2.17;;;;;;;2.31;100.00;98830.91;5035490;28;20312;-74
2023/12/22 08:20:23;;;;;;;11.70;2.73;;;;;;;2.36;100.00;98844.47;5035131;28;20575;-74
2023/12/22 08:23:00;;;;;;;14.50;3.30;;;;;;;2.38;100.00;98825.84;5035499;28;20289;-74
2023/12/22 08:25:35;;;;;;;16.77;3.20;;;;;;;2.41;100.00;98813.16;5035492;28;20194;-74
2023/12/22 08:28:04;;;;;;;19.77;4.03;;;;;;;2.49;100.00;98829.06;5035293;28;20227;-74
2023/12/22 08:30:32;;;;;;;18.33;4.37;;;;;;;2.56;100.00;98839.84;5035285;28;20210;-74
2023/12/22 08:33:02;;;;;;;18.77;4.30;;;;;;;2.59;100.00;98823.69;5034947;28;20767;-74
2023/12/22 08:35:31;;;;;;;21.43;4.10;;;;;;;2.73;100.00;98835.47;5035093;28;20315;-75
2023/12/22 08:37:59;;;;;;;21.50;4.90;;;;;;;2.80;100.00;98844.44;5035041;28;20261;-74
2023/12/22 08:40:28;;;;;;;29.30;5.37;;;;;;;2.83;100.00;98862.63;5034780;28;20211;-75
2023/12/22 08:42:59;;;;;;;24.27;4.73;;;;;;;2.93;100.00;98864.16;5035059;28;20242;-75
2023/12/22 08:45:29;;;;;;;21.23;4.90;;;;;;;2.96;100.00;98863.00;5035019;28;20199;-74
2023/12/22 08:47:58;;;;;;;26.93;5.70;;;;;;;2.99;100.00;98860.03;5034611;28;20724;-74
2023/12/22 08:50:28;;;;;;;23.57;4.87;;;;;;;3.10;100.00;98864.22;5034588;28;20304;-76
2023/12/22 08:52:56;;;;;;;23.50;4.70;;;;;;;3.11;100.00;98873.81;5034864;28;20261;-74
2023/12/22 08:55:25;;;;;;;27.00;5.47;;;;;;;3.14;100.00;98865.56;5034754;28;20234;-75
2023/12/22 08:57:54;;;;;;;22.50;4.77;;;;;;;3.24;100.00;98882.97;5034301;28;20227;-74
2023/12/22 09:00:30;;;;;;;21.67;4.63;;;;;;;3.31;100.00;98878.72;5034673;28;20241;-74
2023/12/22 09:02:58;;;;;;;26.70;4.77;;;;;;;3.34;100.00;98878.38;5034669;28;20297;-74
2023/12/22 09:05:28;;;;;;;27.53;5.23;;;;;;;3.40;100.00;98884.84;5034937;28;20272;-74
2023/12/22 09:07:57;;;;;;;20.03;4.87;;;;;;;3.46;100.00;98882.38;5034181;28;20234;-74
2023/12/22 09:10:26;;;;;;;23.90;4.83;;;;;;;3.47;100.00;98883.22;5034211;28;20771;-74
2023/12/22 09:12:54;;;;;;;25.53;4.90;;;;;;;3.54;100.00;98871.00;5034530;28;20232;-74
2023/12/22 09:15:23;;;;;;;28.93;4.90;;;;;;;3.56;100.00;98882.28;5034009;28;20698;-74
2023/12/22 09:17:53;;;;;;;27.50;5.43;;;;;;;3.57;100.00;98890.03;5033982;28;20633;-74
2023/12/22 09:20:22;;;;;;;24.90;4.90;;;;;;;3.60;100.00;98893.38;5034371;28;20191;-75
2023/12/22 09:22:52;;;;;;;25.20;5.00;;;;;;;3.64;100.00;98886.72;5034266;28;20210;-75
2023/12/22 09:25:21;;;;;;;30.43;4.87;;;;;;;3.77;100.00;98887.91;5034283;28;20190;-75
2023/12/22 09:27:49;;;;;;;20.73;4.10;;;;;;;3.74;100.00;98887.41;5034155;28;20305;-74
2023/12/22 09:30:18;;;;;;;24.83;4.83;;;;;;;3.82;100.00;98876.84;5034112;28;20207;-74
2023/12/22 09:32:47;;;;;;;15.73;4.67;;;;;;;3.86;100.00;98883.50;5034142;28;20290;-75
2023/12/22 09:35:17;;;;;;;20.10;4.60;;;;;;;3.97;100.00;98880.53;5033655;28;20223;-75
2023/12/22 09:37:45;;;;;;;21.23;4.67;;;;;;;3.92;100.00;98872.25;5034285;28;20227;-74
2023/12/22 09:40:15;;;;;;;22.03;4.60;;;;;;;3.92;100.00;98872.25;5033989;28;20211;-75
2023/12/22 09:42:44;;;;;;;20.03;4.13;;;;;;;3.96;100.00;98863.81;5033994;28;20301;-74
2023/12/22 09:45:13;;;;;;;27.83;4.63;;;;;;;3.97;100.00;98873.41;5033585;28;20209;-75
2023/12/22 09:47:44;;;;;;;26.67;4.87;;;;;;;4.02;99.63;98867.63;5033844;28;20237;-76
2023/12/22 09:50:15;;;;;;;19.17;4.23;;;;;;;4.01;99.40;98855.34;5033525;28;20679;-74
2023/12/22 09:52:45;;;;;;;22.53;4.97;;;;;;;4.09;97.73;98850.91;5033808;28;20195;-74
2023/12/22 09:55:17;;;;;;;16.13;3.80;;;;;;;4.06;98.28;98843.31;5033365;28;20708;-75
2023/12/22 09:57:47;;;;;;;17.33;4.17;;;;;;;4.15;95.24;98846.75;5033378;28;20599;-74
2023/12/22 10:00:18;;;;;;;21.27;4.47;;;;;;;4.18;95.11;98870.25;5033701;28;20191;-74
2023/12/22 10:02:47;;;;;;;15.37;4.53;;;;;;;4.24;93.12;98851.09;5033965;28;20256;-75
2023/12/22 10:05:17;;;;;;;20.60;4.03;;;;;;;4.23;93.07;98870.63;5033601;28;20209;-74
2023/12/22 10:07:47;;;;;;;16.17;3.53;;;;;;;4.22;93.45;98876.06;5033233;28;20716;-75
2023/12/22 10:10:17;;;;;;;15.57;3.20;;;;;;;4.30;90.67;98868.13;5033625;28;20204;-75
2023/12/22 10:12:47;;;;;;;11.43;2.90;;;;;;;4.26;91.84;98886.16;5033606;28;20203;-75
2023/12/22 10:15:18;;;;;;;14.43;3.63;;;;;;;4.26;91.91;98891.47;5033477;28;20269;-75
2023/12/22 10:17:47;;;;;;;13.40;2.83;;;;;;;4.30;90.91;98854.88;5033524;28;20223;-75
2023/12/22 10:20:16;;;;;;;13.87;3.00;;;;;;;4.26;91.40;98896.75;5033509;28;20207;-75
2023/12/22 10:22:46;;;;;;;12.73;3.00;;;;;;;4.27;91.79;98887.84;5033468;28;20207;-75
2023/12/22 10:25:20;;;;;;;13.63;4.97;;;;;;;4.24;93.04;98877.56;5033431;28;20206;-75
2023/12/22 10:27:52;;;;;;;16.53;3.70;;;;;;;4.25;93.52;98887.16;5033078;28;20593;-74
2023/12/22 10:30:20;;;;;;;12.27;3.00;;;;;;;4.19;95.14;98895.78;5033064;28;20706;-74
2023/12/22 10:32:51;;;;;;;20.67;3.47;;;;;;;4.15;96.54;98885.66;5033378;28;20584;-75
2023/12/22 10:35:20;;;;;;;10.07;3.03;;;;;;;4.12;97.12;98878.88;5032991;28;20264;-74
2023/12/22 10:37:52;;;;;;;10.77;2.30;;;;;;;4.09;98.17;98889.81;5033256;28;20261;-75
2023/12/22 10:40:22;;;;;;;13.67;3.27;;;;;;;4.07;99.84;98879.34;5033308;28;20198;-76
2023/12/22 10:42:52;;;;;;;10.07;2.53;;;;;;;4.05;100.00;98877.88;5033269;28;20214;-75
2023/12/22 10:45:23;;;;;;;19.07;3.30;;;;;;;4.02;100.00;98875.56;5033190;28;20213;-74
2023/12/22 10:47:53;;;;;;;11.33;2.77;;;;;;;3.99;100.00;98875.91;5033190;28;20227;-76
2023/12/22 10:50:24;;;;;;;13.03;2.60;;;;;;;4.01;100.00;98887.13;5032819;28;20248;-75
2023/12/22 10:52:53;;;;;;;11.70;2.80;;;;;;;4.00;100.00;98880.22;5032885;28;20692;-75
2023/12/22 10:55:23;;;;;;;13.47;2.90;;;;;;;3.91;100.00;98884.66;5033075;28;20226;-74
2023/12/22 10:57:52;;;;;;;11.43;3.33;;;;;;;3.85;100.00;98877.34;5032739;28;20788;-74
2023/12/22 11:00:22;;;;;;;7.93;2.17;;;;;;;3.80;100.00;98890.25;5033087;28;20248;-74
2023/12/22 11:02:56;;;;;;;11.13;3.10;;;;;;;3.71;100.00;98871.88;5033159;28;20298;-74
2023/12/22 11:05:28;;;;;;;10.17;2.57;;;;;;;3.69;100.00;98871.22;5033146;28;20191;-75
2023/12/22 11:07:58;;;;;;;11.80;2.60;;;;;;;3.68;100.00;98877.47;5032726;28;20265;-74
2023/12/22 11:10:34;;;;;;;12.57;3.30;;;;;;;3.68;100.00;98862.44;5033094;28;20274;-74
2023/12/22 11:13:05;;;;;;;11.47;2.67;;;;;;;3.67;100.00;98865.22;5032713;28;20647;-75
2023/12/22 11:15:35;;;;;;;21.13;3.10;;;;;;;3.63;100.00;98863.94;5032926;28;20211;-75
2023/12/22 11:18:05;;;;;;;13.97;3.40;;;;;;;3.65;100.00;98857.47;5032881;28;20234;-76
2023/12/22 11:20:35;;;;;;;15.30;3.07;;;;;;;3.66;100.00;98851.19;5032892;28;20261;-75
2023/12/22 11:23:05;;;;;;;16.47;3.87;;;;;;;3.66;100.00;98847.72;5035486;28;20297;-75
2023/12/22 11:25:37;;;;;;;14.03;3.53;;;;;;;3.69;100.00;98839.47;5036505;28;20203;-75
2023/12/22 11:28:08;;;;;;;15.80;3.63;;;;;;;3.70;100.00;98838.47;5036403;28;20231;-74
2023/12/22 11:30:37;;;;;;;25.43;4.57;;;;;;;3.73;100.00;98846.91;5036448;28;20278;-74
2023/12/22 11:33:06;;;;;;;18.57;3.77;;;;;;;3.82;100.00;98853.03;5036373;28;20210;-75
2023/12/22 11:35:36;;;;;;;21.10;3.63;;;;;;;3.82;100.00;98834.50;5035985;28;20229;-75
2023/12/22 11:38:06;;;;;;;16.50;3.83;;;;;;;3.83;100.00;98839.66;5036172;28;20226;-75
2023/12/22 11:40:36;;;;;;;17.53;3.60;;;;;;;3.89;100.00;98835.50;5036216;28;20206;-76